Time;durP1;ratioP1;P1;durP2;ratioP2;P2;SDS_P1;SDS_P2;PMS_P1;PMS_P2;Temp;Humidity;BMP_temperature;BMP_pressure;BME280_temperature;BME280_humidity;BME280_pressure;Samples;Min_cycle;Max_cycle;Signal;HPM_P1;HPM_P2
2023/03/13 00:00:50;;;;;;;12.87;3.77;;;11.30;99.90;;;;;;5029736;28;20474;-72
2023/03/13 00:03:36;;;;;;;12.67;3.90;;;11.30;99.90;;;;;;5045192;28;20410;-72
2023/03/13 00:06:24;;;;;;;15.00;3.80;;;11.20;99.90;;;;;;5026941;28;20439;-72
2023/03/13 00:09:11;;;;;;;17.80;3.67;;;11.20;99.90;;;;;;5033085;28;20441;-71
2023/03/13 00:11:57;;;;;;;30.00;4.30;;;11.30;99.90;;;;;;5039758;28;20435;-72
2023/03/13 00:14:42;;;;;;;12.00;3.40;;;11.30;99.90;;;;;;5031219;28;20419;-71
2023/03/13 00:17:29;;;;;;;17.30;4.00;;;11.30;99.90;;;;;;5034250;28;20406;-71
2023/03/13 00:20:16;;;;;;;9.63;3.73;;;11.30;99.90;;;;;;5037549;28;21056;-71
2023/03/13 00:23:03;;;;;;;21.60;4.57;;;11.30;99.90;;;;;;5035909;28;20483;-72
2023/03/13 00:25:48;;;;;;;17.73;4.43;;;11.30;99.90;;;;;;5026964;28;20483;-72
2023/03/13 00:28:35;;;;;;;10.70;3.90;;;11.30;99.90;;;;;;5030383;28;20523;-71
2023/03/13 00:31:22;;;;;;;10.07;3.67;;;11.30;99.90;;;;;;5039186;28;20446;-71
2023/03/13 00:34:09;;;;;;;11.27;3.50;;;11.40;99.90;;;;;;5036435;28;20434;-71
2023/03/13 00:36:55;;;;;;;20.67;4.10;;;11.40;99.90;;;;;;5031244;28;20436;-71
2023/03/13 00:39:43;;;;;;;16.93;3.33;;;11.40;99.90;;;;;;5028654;28;20510;-71
2023/03/13 00:42:29;;;;;;;9.03;3.10;;;11.40;99.90;;;;;;5033318;28;20470;-72
2023/03/13 00:45:15;;;;;;;14.57;2.83;;;11.40;99.90;;;;;;5030077;28;20600;-71
2023/03/13 00:48:01;;;;;;;15.60;2.90;;;11.40;99.90;;;;;;5035462;28;20544;-71
2023/03/13 00:50:46;;;;;;;13.27;4.40;;;11.30;99.90;;;;;;5032616;28;20439;-72
2023/03/13 00:53:32;;;;;;;11.63;3.53;;;11.30;99.90;;;;;;5039064;28;20442;-71
2023/03/13 00:56:20;;;;;;;6.47;2.53;;;11.30;99.90;;;;;;5030999;28;20435;-72
2023/03/13 00:59:06;;;;;;;10.33;3.70;;;11.30;99.90;;;;;;5035217;28;20501;-72
2023/03/13 01:01:52;;;;;;;21.40;3.33;;;11.40;99.90;;;;;;5032663;28;20435;-72
2023/03/13 01:04:37;;;;;;;12.47;2.80;;;11.40;99.90;;;;;;5022006;28;20485;-71
2023/03/13 01:07:23;;;;;;;7.80;2.77;;;11.50;99.90;;;;;;5035330;28;20437;-71
2023/03/13 01:10:09;;;;;;;13.13;4.10;;;11.50;99.90;;;;;;5038762;28;20465;-71
2023/03/13 01:12:57;;;;;;;19.13;3.13;;;11.50;99.90;;;;;;5038939;28;20556;-72
2023/03/13 01:15:42;;;;;;;10.23;3.53;;;11.40;99.90;;;;;;5026689;28;20448;-72
2023/03/13 01:18:28;;;;;;;17.43;2.97;;;11.40;99.90;;;;;;5033703;28;20497;-72
2023/03/13 01:21:14;;;;;;;11.10;3.43;;;11.40;99.90;;;;;;5045646;28;20543;-71
2023/03/13 01:24:00;;;;;;;9.67;3.03;;;11.50;99.90;;;;;;5030516;28;20503;-71
2023/03/13 01:26:45;;;;;;;13.87;3.20;;;11.50;99.90;;;;;;5038010;28;20459;-72
2023/03/13 01:29:32;;;;;;;9.67;2.80;;;11.50;99.90;;;;;;5043248;28;20520;-71
2023/03/13 01:32:18;;;;;;;14.77;3.30;;;11.50;99.90;;;;;;5035044;28;20450;-72
2023/03/13 01:35:04;;;;;;;10.87;2.93;;;11.50;99.90;;;;;;5026415;28;20434;-72
2023/03/13 01:37:50;;;;;;;11.43;3.30;;;11.50;99.90;;;;;;5033765;28;20566;-71
2023/03/13 01:40:40;;;;;;;12.77;3.13;;;11.50;99.90;;;;;;5035057;28;20428;-72
2023/03/13 01:43:28;;;;;;;11.10;3.00;;;11.50;99.90;;;;;;5024284;28;20984;-72
2023/03/13 01:46:17;;;;;;;13.53;3.50;;;11.60;99.90;;;;;;5036846;28;20959;-72
2023/03/13 01:49:07;;;;;;;10.43;2.87;;;11.60;99.90;;;;;;5033937;28;20944;-71
2023/03/13 01:51:55;;;;;;;18.33;3.47;;;11.60;99.90;;;;;;5033213;28;21065;-72
2023/03/13 01:54:45;;;;;;;15.73;3.03;;;11.60;99.90;;;;;;5029718;28;20425;-71
2023/03/13 01:57:35;;;;;;;7.63;2.90;;;11.60;99.90;;;;;;5033136;28;20480;-72
2023/03/13 02:00:23;;;;;;;11.63;3.37;;;11.60;99.90;;;;;;5033994;28;20467;-72
2023/03/13 02:03:14;;;;;;;13.00;2.73;;;11.60;99.90;;;;;;5035465;28;20425;-71
2023/03/13 02:06:00;;;;;;;12.70;2.83;;;11.60;99.90;;;;;;5030333;28;20448;-71
2023/03/13 02:08:51;;;;;;;7.47;2.93;;;11.70;99.90;;;;;;5047438;28;20930;-71
2023/03/13 02:11:47;;;;;;;8.50;2.33;;;11.70;99.90;;;;;;5031218;28;20877;-71
2023/03/13 02:14:36;;;;;;;15.97;3.30;;;11.70;99.90;;;;;;5026167;28;20455;-72
2023/03/13 02:17:22;;;;;;;14.17;3.97;;;11.70;99.90;;;;;;5031904;28;20431;-72
2023/03/13 02:20:11;;;;;;;6.13;2.27;;;11.70;99.90;;;;;;5031829;28;20579;-71
2023/03/13 02:23:02;;;;;;;15.83;3.43;;;11.70;99.90;;;;;;5029801;28;20449;-71
2023/03/13 02:25:51;;;;;;;17.33;2.97;;;11.60;99.90;;;;;;5033160;28;20449;-72
2023/03/13 02:28:38;;;;;;;12.37;2.27;;;11.50;99.90;;;;;;5026922;28;20460;-72
2023/03/13 02:31:24;;;;;;;7.53;2.00;;;11.50;99.90;;;;;;5030746;28;20947;-72
2023/03/13 02:34:11;;;;;;;12.53;2.57;;;11.40;99.90;;;;;;5025168;28;20617;-72
2023/03/13 02:36:58;;;;;;;13.50;2.17;;;11.40;99.90;;;;;;5034925;28;20791;-72
2023/03/13 02:39:47;;;;;;;8.10;2.20;;;11.50;99.90;;;;;;5032046;28;20450;-72
2023/03/13 02:42:35;;;;;;;6.30;2.77;;;11.40;99.90;;;;;;5028154;28;20459;-71
2023/03/13 02:45:21;;;;;;;9.83;2.53;;;11.50;99.90;;;;;;5036488;28;20844;-72
2023/03/13 02:48:06;;;;;;;10.80;2.67;;;11.40;99.90;;;;;;5040964;28;20442;-72
2023/03/13 02:50:52;;;;;;;9.33;2.73;;;11.50;99.90;;;;;;5043892;28;20438;-71
2023/03/13 02:53:38;;;;;;;7.27;2.17;;;11.50;99.90;;;;;;5029431;28;20451;-72
2023/03/13 02:56:26;;;;;;;14.33;2.43;;;11.50;99.90;;;;;;5033805;28;20444;-72
2023/03/13 02:59:13;;;;;;;7.60;1.80;;;11.50;99.90;;;;;;5033845;28;20483;-72
2023/03/13 03:01:59;;;;;;;8.60;2.30;;;11.40;99.90;;;;;;5039252;28;20441;-72
2023/03/13 03:04:45;;;;;;;16.10;2.80;;;11.40;99.90;;;;;;5034116;28;20580;-72
2023/03/13 03:07:30;;;;;;;7.43;2.30;;;11.30;99.90;;;;;;5031602;28;20436;-72
2023/03/13 03:10:16;;;;;;;5.97;2.30;;;11.30;99.90;;;;;;5045393;28;20482;-72
2023/03/13 03:13:02;;;;;;;8.57;2.37;;;11.30;99.90;;;;;;5031776;28;20487;-71
2023/03/13 03:15:49;;;;;;;6.43;2.20;;;11.30;99.90;;;;;;5039997;28;20439;-72
2023/03/13 03:18:35;;;;;;;6.50;2.27;;;11.30;99.90;;;;;;5033128;28;20418;-72
2023/03/13 03:21:22;;;;;;;15.27;2.77;;;11.30;99.90;;;;;;5042711;28;20443;-71
2023/03/13 03:24:08;;;;;;;6.83;2.20;;;11.30;99.90;;;;;;5032318;28;20458;-72
2023/03/13 03:26:54;;;;;;;4.83;1.93;;;11.30;99.90;;;;;;5037544;28;20479;-72
2023/03/13 03:29:40;;;;;;;6.90;2.30;;;11.30;99.90;;;;;;5041607;28;20508;-72
2023/03/13 03:32:27;;;;;;;6.03;2.33;;;11.30;99.90;;;;;;5034681;28;20500;-72
2023/03/13 03:35:12;;;;;;;6.53;2.40;;;11.40;99.90;;;;;;5032113;28;20456;-72
2023/03/13 03:37:58;;;;;;;7.67;2.90;;;11.40;99.90;;;;;;5036830;28;20512;-72
2023/03/13 03:40:44;;;;;;;7.10;2.03;;;11.50;99.90;;;;;;5041801;28;20457;-72
2023/03/13 03:43:29;;;;;;;11.30;2.60;;;11.50;99.90;;;;;;5024180;28;20449;-72
2023/03/13 03:46:15;;;;;;;13.10;1.80;;;11.50;99.90;;;;;;5037637;28;20471;-71
2023/03/13 03:49:02;;;;;;;6.17;2.30;;;11.50;99.90;;;;;;5039356;28;20869;-71
2023/03/13 03:51:48;;;;;;;10.47;3.70;;;11.50;99.90;;;;;;5032350;28;20438;-71
2023/03/13 03:54:34;;;;;;;8.97;1.90;;;11.40;99.90;;;;;;5034391;28;20435;-71
2023/03/13 03:57:19;;;;;;;8.00;2.33;;;11.40;99.90;;;;;;5041015;28;20492;-72
2023/03/13 04:00:06;;;;;;;8.80;2.40;;;11.40;99.90;;;;;;5036678;28;20821;-71
2023/03/13 04:02:52;;;;;;;9.90;2.40;;;11.40;99.90;;;;;;5033002;28;20447;-72
2023/03/13 04:05:39;;;;;;;9.43;2.40;;;11.30;99.90;;;;;;5034873;28;20506;-72
2023/03/13 04:08:26;;;;;;;5.47;1.83;;;11.30;99.90;;;;;;5024502;28;20574;-72
2023/03/13 04:11:11;;;;;;;6.90;1.57;;;11.20;99.90;;;;;;5047027;28;20963;-71
2023/03/13 04:13:57;;;;;;;8.17;2.03;;;11.20;99.90;;;;;;5031545;28;20995;-72
2023/03/13 04:16:43;;;;;;;16.43;2.40;;;11.00;99.90;;;;;;5038687;28;20675;-71
2023/03/13 04:19:28;;;;;;;7.40;1.83;;;10.90;99.90;;;;;;5028664;28;20462;-71
2023/03/13 04:22:16;;;;;;;7.13;2.20;;;10.90;99.90;;;;;;5029892;28;20847;-71
2023/03/13 04:25:01;;;;;;;7.83;2.00;;;10.90;99.90;;;;;;5037825;28;20432;-71
2023/03/13 04:27:47;;;;;;;8.20;2.40;;;10.90;99.90;;;;;;5036066;28;20436;-71
2023/03/13 04:30:33;;;;;;;14.17;1.97;;;10.90;99.90;;;;;;5027907;28;20434;-71
2023/03/13 04:33:19;;;;;;;6.10;2.20;;;10.90;99.90;;;;;;5033263;28;20492;-71
2023/03/13 04:36:05;;;;;;;12.60;1.90;;;10.90;99.90;;;;;;5034694;28;20451;-72
2023/03/13 04:38:52;;;;;;;4.40;1.60;;;10.90;99.90;;;;;;5049358;28;20460;-71
2023/03/13 04:41:38;;;;;;;5.30;1.80;;;10.90;99.90;;;;;;5034418;28;21202;-71
2023/03/13 04:44:23;;;;;;;8.40;1.87;;;10.90;99.90;;;;;;5035089;28;21056;-71
2023/03/13 04:47:09;;;;;;;5.13;1.83;;;11.00;99.90;;;;;;5034555;28;20536;-71
2023/03/13 04:49:54;;;;;;;7.47;2.63;;;11.00;99.90;;;;;;5036643;28;20418;-71
2023/03/13 04:52:40;;;;;;;5.40;1.40;;;11.00;99.90;;;;;;5029314;28;21703;-71
2023/03/13 04:55:27;;;;;;;6.60;1.80;;;11.00;99.90;;;;;;5024708;28;20429;-71
2023/03/13 04:58:12;;;;;;;5.67;1.93;;;11.10;99.90;;;;;;5037459;28;20494;-72
2023/03/13 05:00:58;;;;;;;6.30;1.80;;;11.10;99.90;;;;;;5039820;28;20529;-71
2023/03/13 05:03:44;;;;;;;6.03;1.80;;;11.10;99.90;;;;;;5031343;28;20427;-71
2023/03/13 05:06:29;;;;;;;6.07;1.80;;;11.10;99.90;;;;;;5028273;28;21072;-71
2023/03/13 05:09:15;;;;;;;4.53;1.80;;;11.10;99.90;;;;;;5025190;28;20456;-71
2023/03/13 05:12:02;;;;;;;5.47;1.97;;;11.20;99.90;;;;;;5028606;28;20455;-71
2023/03/13 05:14:49;;;;;;;3.50;1.67;;;11.20;99.90;;;;;;5027811;28;20394;-71
2023/03/13 05:17:34;;;;;;;5.73;1.90;;;11.20;99.90;;;;;;5036469;28;20554;-71
2023/03/13 05:20:20;;;;;;;7.33;1.87;;;11.20;99.90;;;;;;5025272;28;20488;-71
2023/03/13 05:23:06;;;;;;;7.47;2.23;;;11.20;99.90;;;;;;5026933;28;20432;-71
2023/03/13 05:25:52;;;;;;;4.07;2.10;;;11.20;99.90;;;;;;5035040;28;20475;-71
2023/03/13 05:28:39;;;;;;;5.17;2.30;;;11.20;99.90;;;;;;5031740;28;20604;-71
2023/03/13 05:31:24;;;;;;;13.87;2.93;;;11.20;99.90;;;;;;5035831;28;21019;-71
2023/03/13 05:34:09;;;;;;;5.00;1.60;;;11.30;99.90;;;;;;5037367;28;21128;-71
2023/03/13 05:36:55;;;;;;;6.33;2.40;;;11.30;99.90;;;;;;5037256;28;20576;-71
2023/03/13 05:39:41;;;;;;;6.00;2.23;;;11.30;99.90;;;;;;5026265;28;20481;-71
2023/03/13 05:42:27;;;;;;;4.07;1.50;;;11.30;99.90;;;;;;5028738;28;20581;-71
2023/03/13 05:45:14;;;;;;;3.33;1.63;;;11.30;99.90;;;;;;5032457;28;20795;-71
2023/03/13 05:47:59;;;;;;;5.00;2.10;;;11.40;99.90;;;;;;5037479;28;20418;-71
2023/03/13 05:50:46;;;;;;;4.57;1.60;;;11.30;99.90;;;;;;5029194;28;20451;-71
2023/03/13 05:53:31;;;;;;;4.60;1.83;;;11.30;99.90;;;;;;5032056;28;20428;-72
2023/03/13 05:56:17;;;;;;;3.83;1.40;;;11.30;99.90;;;;;;5029972;28;20574;-71
2023/03/13 05:59:03;;;;;;;6.20;1.90;;;11.40;99.90;;;;;;5033934;28;20573;-71
2023/03/13 06:01:50;;;;;;;6.63;2.03;;;11.40;99.90;;;;;;5024647;28;20545;-71
2023/03/13 06:04:36;;;;;;;5.77;2.00;;;11.40;99.90;;;;;;5029687;28;20440;-71
2023/03/13 06:07:21;;;;;;;4.30;1.63;;;11.50;99.90;;;;;;5035692;28;20466;-71
2023/03/13 06:10:07;;;;;;;2.60;1.50;;;11.40;99.90;;;;;;5022699;28;20486;-71
2023/03/13 06:12:53;;;;;;;5.43;1.53;;;11.50;99.90;;;;;;5033128;28;20485;-71
2023/03/13 06:15:39;;;;;;;4.90;2.27;;;11.50;99.90;;;;;;5036475;28;20401;-71
2023/03/13 06:18:26;;;;;;;5.10;1.67;;;11.50;99.90;;;;;;5033811;28;21064;-71
2023/03/13 06:21:12;;;;;;;3.00;1.47;;;11.60;99.90;;;;;;5028340;28;20943;-72
2023/03/13 06:23:58;;;;;;;3.30;1.37;;;11.60;99.90;;;;;;5039854;28;20431;-71
2023/03/13 06:26:44;;;;;;;8.77;1.50;;;11.60;99.90;;;;;;5035846;28;21012;-71
2023/03/13 06:29:29;;;;;;;4.10;2.07;;;11.60;99.90;;;;;;5026483;28;20466;-71
2023/03/13 06:32:15;;;;;;;6.80;1.60;;;11.60;99.90;;;;;;5034360;28;20882;-71
2023/03/13 06:35:02;;;;;;;2.47;1.40;;;11.60;99.90;;;;;;5037253;28;20530;-72
2023/03/13 06:37:48;;;;;;;3.40;1.30;;;11.60;99.90;;;;;;5040256;28;20417;-71
2023/03/13 06:40:34;;;;;;;5.30;1.50;;;11.70;99.90;;;;;;5030953;28;20430;-71
2023/03/13 06:43:20;;;;;;;8.67;1.10;;;11.70;99.90;;;;;;5032005;28;20482;-72
2023/03/13 06:46:06;;;;;;;2.67;1.30;;;11.70;99.90;;;;;;5044110;28;20448;-71
2023/03/13 06:48:52;;;;;;;2.33;1.60;;;11.70;99.90;;;;;;5042571;28;20449;-72
2023/03/13 06:51:39;;;;;;;5.93;1.20;;;11.70;99.90;;;;;;5027735;28;20963;-72
2023/03/13 06:54:25;;;;;;;3.40;1.60;;;11.80;99.90;;;;;;5031348;28;20478;-71
2023/03/13 06:57:11;;;;;;;4.40;1.60;;;11.80;99.90;;;;;;5041800;28;20430;-71
2023/03/13 06:59:57;;;;;;;4.63;0.97;;;11.90;99.90;;;;;;5031232;28;20474;-72
2023/03/13 07:02:42;;;;;;;3.30;1.30;;;11.90;99.90;;;;;;5034033;28;20432;-71
2023/03/13 07:05:28;;;;;;;2.63;1.23;;;11.90;99.90;;;;;;5029327;28;20427;-72
2023/03/13 07:08:15;;;;;;;2.27;1.17;;;12.00;99.90;;;;;;5044959;28;20904;-71
2023/03/13 07:11:03;;;;;;;3.20;1.10;;;11.90;99.90;;;;;;5024419;28;20456;-72
2023/03/13 07:13:49;;;;;;;2.17;1.00;;;12.00;99.90;;;;;;5030040;28;20422;-71
2023/03/13 07:16:34;;;;;;;4.90;1.20;;;12.00;99.90;;;;;;5032874;28;20431;-72
2023/03/13 07:19:20;;;;;;;4.70;1.53;;;12.10;99.90;;;;;;5037905;28;20420;-72
2023/03/13 07:22:06;;;;;;;2.93;0.97;;;12.10;99.90;;;;;;5035808;28;20446;-71
2023/03/13 07:24:53;;;;;;;2.60;1.10;;;12.10;99.90;;;;;;5036771;28;20431;-71
2023/03/13 07:27:38;;;;;;;3.10;1.70;;;12.10;99.90;;;;;;5031225;28;20475;-72
2023/03/13 07:30:24;;;;;;;2.83;1.20;;;12.20;99.90;;;;;;5035587;28;20479;-71
2023/03/13 07:33:10;;;;;;;1.77;1.20;;;12.20;99.90;;;;;;5036688;28;21016;-71
2023/03/13 07:35:55;;;;;;;1.70;1.30;;;12.30;99.90;;;;;;5030021;28;20451;-72
2023/03/13 07:38:42;;;;;;;3.73;1.50;;;12.30;99.90;;;;;;5032864;28;20809;-71
2023/03/13 07:41:29;;;;;;;1.93;1.10;;;12.30;99.90;;;;;;5034319;28;20454;-70
2023/03/13 07:44:15;;;;;;;2.83;1.13;;;12.30;99.90;;;;;;5033996;28;20478;-70
2023/03/13 07:47:01;;;;;;;1.90;1.10;;;12.30;99.90;;;;;;5038631;28;20471;-72
2023/03/13 07:49:46;;;;;;;4.10;1.40;;;12.30;99.90;;;;;;5020555;28;20476;-73
2023/03/13 07:52:32;;;;;;;2.13;1.30;;;12.30;99.90;;;;;;5033438;28;20502;-70
2023/03/13 07:55:18;;;;;;;2.73;1.60;;;12.30;99.90;;;;;;5029634;28;20480;-70
2023/03/13 07:58:05;;;;;;;5.27;1.40;;;12.30;99.90;;;;;;5025366;28;20492;-70
2023/03/13 08:00:51;;;;;;;3.50;1.47;;;12.40;99.90;;;;;;5023242;28;20490;-70
2023/03/13 08:03:36;;;;;;;2.30;1.40;;;12.30;99.90;;;;;;5034867;28;20558;-72
2023/03/13 08:06:24;;;;;;;3.10;1.40;;;12.30;99.90;;;;;;5034682;28;20445;-72
2023/03/13 08:09:10;;;;;;;3.53;1.17;;;12.30;99.90;;;;;;5023509;28;20693;-72
2023/03/13 08:11:55;;;;;;;4.30;1.40;;;12.40;99.90;;;;;;5029566;28;20447;-71
2023/03/13 08:14:42;;;;;;;4.07;2.27;;;12.40;99.90;;;;;;5021325;28;20494;-71
2023/03/13 08:17:29;;;;;;;3.37;2.37;;;12.50;99.90;;;;;;5027088;28;21249;-71
2023/03/13 08:20:15;;;;;;;2.10;1.47;;;12.50;99.90;;;;;;5025987;28;20470;-71
2023/03/13 08:23:00;;;;;;;5.00;2.03;;;12.60;99.90;;;;;;5037411;28;20569;-72
2023/03/13 08:25:46;;;;;;;3.43;1.50;;;12.70;99.90;;;;;;5035201;28;20643;-72
2023/03/13 08:28:32;;;;;;;3.83;2.07;;;12.70;99.90;;;;;;5030391;28;20446;-72
2023/03/13 08:31:21;;;;;;;3.57;1.60;;;12.70;99.90;;;;;;5038029;28;20479;-72
2023/03/13 08:34:06;;;;;;;2.97;1.50;;;12.70;99.90;;;;;;5032946;28;20419;-72
2023/03/13 08:36:52;;;;;;;2.10;1.40;;;12.80;99.90;;;;;;5020869;28;20555;-72
2023/03/13 08:39:38;;;;;;;3.33;1.63;;;12.80;99.90;;;;;;5020799;28;20438;-72
2023/03/13 08:42:24;;;;;;;2.30;1.70;;;12.80;99.90;;;;;;5033175;28;20414;-72
2023/03/13 08:45:10;;;;;;;3.33;1.70;;;12.90;99.90;;;;;;5037731;28;20439;-72
2023/03/13 08:47:57;;;;;;;3.37;1.70;;;12.90;99.90;;;;;;5036345;28;20461;-72
2023/03/13 08:50:43;;;;;;;3.40;1.30;;;12.90;99.90;;;;;;5032758;28;20573;-72
2023/03/13 08:53:29;;;;;;;2.83;1.93;;;12.90;99.90;;;;;;5016324;28;20568;-72
2023/03/13 08:56:16;;;;;;;3.60;1.50;;;13.00;99.90;;;;;;5036632;28;20425;-72
2023/03/13 08:59:04;;;;;;;2.40;1.70;;;13.00;99.90;;;;;;5033124;28;20818;-72
2023/03/13 09:01:50;;;;;;;2.40;1.67;;;13.00;99.90;;;;;;5039381;28;20508;-72
2023/03/13 09:04:37;;;;;;;5.70;1.40;;;13.00;99.90;;;;;;5034141;28;20425;-72
2023/03/13 09:07:23;;;;;;;2.10;1.50;;;13.00;99.90;;;;;;5030427;28;20501;-72
2023/03/13 09:10:09;;;;;;;2.50;1.60;;;13.10;99.90;;;;;;5023046;28;20583;-72
2023/03/13 09:12:55;;;;;;;3.47;1.50;;;13.10;99.90;;;;;;5037279;28;20447;-72
2023/03/13 09:15:40;;;;;;;4.03;1.53;;;13.10;99.90;;;;;;5031440;28;20442;-72
2023/03/13 09:18:27;;;;;;;2.37;1.60;;;13.20;99.90;;;;;;5033291;28;20453;-72
2023/03/13 09:21:16;;;;;;;3.17;1.60;;;13.20;99.90;;;;;;5033209;28;20409;-72
2023/03/13 09:24:01;;;;;;;4.57;1.73;;;13.30;99.90;;;;;;5034502;28;20451;-72
2023/03/13 09:26:47;;;;;;;3.30;1.80;;;13.40;99.90;;;;;;5036222;28;20466;-72
2023/03/13 09:29:36;;;;;;;2.50;1.60;;;13.50;99.90;;;;;;5025088;28;20581;-72
2023/03/13 09:32:22;;;;;;;2.60;1.60;;;13.60;99.90;;;;;;5035417;28;20488;-72
2023/03/13 09:35:09;;;;;;;2.50;1.57;;;13.60;99.90;;;;;;5026116;28;20450;-72
2023/03/13 09:37:56;;;;;;;4.40;1.70;;;13.70;99.90;;;;;;5038458;28;20435;-72
2023/03/13 09:40:45;;;;;;;3.67;1.90;;;13.70;99.90;;;;;;5037118;28;20428;-72
2023/03/13 09:43:40;;;;;;;4.70;1.70;;;13.60;99.90;;;;;;5028795;28;20506;-72
2023/03/13 09:46:33;;;;;;;4.30;2.00;;;13.70;99.90;;;;;;5039006;28;20409;-72
2023/03/13 09:49:30;;;;;;;2.77;1.70;;;13.60;99.90;;;;;;5028483;28;20471;-72
2023/03/13 09:52:26;;;;;;;3.13;1.43;;;13.50;99.90;;;;;;5035723;28;20401;-72
2023/03/13 09:55:20;;;;;;;3.20;1.80;;;13.60;99.90;;;;;;5041961;28;20454;-72
2023/03/13 09:58:15;;;;;;;7.03;1.80;;;13.60;99.90;;;;;;5031403;28;21019;-72
2023/03/13 10:01:03;;;;;;;3.17;1.60;;;13.70;99.90;;;;;;5041122;28;20962;-72
2023/03/13 10:03:59;;;;;;;4.47;1.80;;;13.70;99.90;;;;;;5036373;28;20917;-72
2023/03/13 10:06:46;;;;;;;2.27;1.80;;;13.80;99.90;;;;;;5034216;28;20776;-72
2023/03/13 10:09:33;;;;;;;10.67;2.63;;;13.80;99.90;;;;;;5027959;28;20523;-72
2023/03/13 10:12:24;;;;;;;3.60;1.80;;;13.80;99.90;;;;;;5035165;28;20453;-71
2023/03/13 10:15:32;;;;;;;3.27;1.80;;;13.80;99.90;;;;;;5031399;28;20411;-72
2023/03/13 10:18:21;;;;;;;4.10;1.90;;;13.90;99.90;;;;;;5034900;28;20442;-72
2023/03/13 10:21:16;;;;;;;2.90;1.40;;;13.90;99.90;;;;;;5039512;28;20549;-72
2023/03/13 10:24:06;;;;;;;3.30;1.80;;;14.00;99.90;;;;;;5045159;28;20464;-72
2023/03/13 10:26:51;;;;;;;3.53;1.83;;;14.20;99.90;;;;;;5040454;28;20969;-72
2023/03/13 10:29:38;;;;;;;3.57;1.80;;;14.20;99.90;;;;;;5033491;28;20448;-72
2023/03/13 10:32:24;;;;;;;3.30;1.47;;;14.40;99.90;;;;;;5038566;28;20431;-72
2023/03/13 10:35:20;;;;;;;3.00;1.53;;;14.40;99.90;;;;;;5037251;28;20408;-72
2023/03/13 10:38:10;;;;;;;2.60;1.30;;;14.50;99.90;;;;;;5027450;28;20602;-72
2023/03/13 10:40:59;;;;;;;4.47;1.70;;;14.50;99.90;;;;;;5045605;28;20929;-74
2023/03/13 10:43:51;;;;;;;3.57;1.77;;;14.50;99.90;;;;;;5040858;28;20507;-72
2023/03/13 10:46:42;;;;;;;5.83;1.97;;;14.60;99.90;;;;;;5028593;28;20819;-72
2023/03/13 10:49:29;;;;;;;2.30;1.70;;;14.70;99.90;;;;;;5032102;28;20445;-72
2023/03/13 10:52:31;;;;;;;3.70;1.90;;;14.80;99.90;;;;;;5044387;28;20451;-72
2023/03/13 10:55:20;;;;;;;4.90;2.07;;;15.20;99.90;;;;;;5038817;28;20587;-72
2023/03/13 10:58:06;;;;;;;5.50;2.13;;;15.30;99.90;;;;;;5024492;28;20448;-72
2023/03/13 11:00:52;;;;;;;5.70;2.00;;;15.40;99.90;;;;;;5046008;28;20936;-72
2023/03/13 11:03:39;;;;;;;2.40;1.57;;;15.50;99.90;;;;;;5037588;28;20427;-72
2023/03/13 11:06:27;;;;;;;7.30;1.90;;;15.60;99.90;;;;;;5026664;28;20401;-72
2023/03/13 11:09:16;;;;;;;3.30;1.47;;;15.70;99.90;;;;;;5034214;28;20481;-72
2023/03/13 11:12:09;;;;;;;6.67;2.03;;;15.80;99.90;;;;;;5041581;28;20464;-72
2023/03/13 11:14:59;;;;;;;5.07;1.70;;;15.80;99.90;;;;;;5035974;28;20449;-72
2023/03/13 11:17:49;;;;;;;3.40;1.90;;;15.70;99.90;;;;;;5027286;28;20564;-72
2023/03/13 11:20:39;;;;;;;3.00;1.43;;;15.60;99.90;;;;;;5035378;28;20451;-72
2023/03/13 11:23:28;;;;;;;2.20;1.67;;;15.60;99.90;;;;;;5037358;28;20420;-72
2023/03/13 11:26:19;;;;;;;3.73;1.83;;;15.60;99.90;;;;;;5035604;28;20407;-72
2023/03/13 11:29:15;;;;;;;3.03;1.60;;;15.70;99.90;;;;;;5032686;28;20551;-72
2023/03/13 11:32:07;;;;;;;3.23;1.60;;;15.90;99.90;;;;;;5038481;28;20453;-72
2023/03/13 11:34:58;;;;;;;3.60;1.50;;;16.00;99.90;;;;;;5032203;28;20450;-72
2023/03/13 11:37:46;;;;;;;5.80;1.70;;;16.10;99.90;;;;;;5016511;28;20463;-73
2023/03/13 11:40:36;;;;;;;3.53;2.00;;;16.30;99.90;;;;;;5024113;28;20471;-73
2023/03/13 11:43:33;;;;;;;2.13;1.63;;;16.70;99.90;;;;;;5021393;28;20437;-72
2023/03/13 11:46:33;;;;;;;4.90;1.50;;;17.10;99.90;;;;;;5027287;28;20424;-72
2023/03/13 11:49:47;;;;;;;4.77;2.00;;;17.50;99.90;;;;;;5023107;28;20494;-73
2023/03/13 11:52:45;;;;;;;4.13;2.43;;;17.80;99.90;;;;;;5029137;28;20418;-71
2023/03/13 11:55:56;;;;;;;4.03;1.50;;;17.90;99.90;;;;;;5024396;28;20456;-70
2023/03/13 11:58:55;;;;;;;4.50;1.70;;;17.90;99.90;;;;;;5022905;28;21031;-71
2023/03/13 12:01:47;;;;;;;3.37;1.67;;;17.80;99.90;;;;;;5026609;28;20545;-70
2023/03/13 12:04:36;;;;;;;2.80;1.30;;;17.60;99.90;;;;;;5024895;28;20430;-70
2023/03/13 12:07:28;;;;;;;4.10;1.90;;;17.50;99.90;;;;;;5021029;28;20447;-70
2023/03/13 12:10:17;;;;;;;6.67;2.03;;;17.30;99.90;;;;;;5016371;28;20460;-70
2023/03/13 12:13:11;;;;;;;8.73;1.90;;;17.20;99.90;;;;;;5021807;28;20454;-70
2023/03/13 12:16:01;;;;;;;2.80;1.40;;;17.00;99.90;;;;;;5018345;28;20466;-70
2023/03/13 12:18:49;;;;;;;5.40;2.00;;;17.00;99.90;;;;;;5027825;28;20436;-70
2023/03/13 12:21:40;;;;;;;3.83;1.90;;;17.00;99.90;;;;;;5030941;28;20444;-72
2023/03/13 12:24:32;;;;;;;4.00;2.63;;;16.90;99.90;;;;;;5019961;28;20430;-72
2023/03/13 12:27:24;;;;;;;2.90;1.87;;;17.00;99.90;;;;;;5023268;28;20896;-70
2023/03/13 12:30:22;;;;;;;10.40;2.53;;;17.00;99.90;;;;;;5025620;28;20548;-72
2023/03/13 12:33:17;;;;;;;5.53;1.70;;;17.10;99.90;;;;;;5030565;28;21024;-71
2023/03/13 12:36:09;;;;;;;4.23;1.53;;;17.10;99.90;;;;;;5030209;28;20450;-72
2023/03/13 12:39:01;;;;;;;5.57;1.70;;;17.10;99.90;;;;;;5029631;28;20445;-72
2023/03/13 12:41:56;;;;;;;7.80;2.20;;;17.10;99.90;;;;;;5025977;28;21016;-72
2023/03/13 12:44:42;;;;;;;3.33;1.73;;;17.10;99.90;;;;;;5028477;28;20417;-72
2023/03/13 12:47:33;;;;;;;5.53;1.90;;;17.10;99.90;;;;;;5022722;28;20425;-72
2023/03/13 12:50:32;;;;;;;5.93;1.80;;;17.20;99.90;;;;;;5033273;28;20800;-72
2023/03/13 12:53:38;;;;;;;3.13;1.67;;;17.20;99.90;;;;;;5024731;28;20987;-72
2023/03/13 12:56:47;;;;;;;3.70;1.50;;;17.20;99.90;;;;;;5024303;28;20516;-72
2023/03/13 12:59:36;;;;;;;3.00;2.13;;;17.20;99.90;;;;;;5017172;28;20434;-72
2023/03/13 13:02:25;;;;;;;3.40;1.73;;;17.30;99.90;;;;;;5021588;28;21051;-72
2023/03/13 13:05:19;;;;;;;2.37;1.80;;;17.20;99.90;;;;;;5020997;28;20460;-72
2023/03/13 13:08:05;;;;;;;3.63;2.17;;;17.20;99.90;;;;;;5026003;28;20536;-72
2023/03/13 13:10:51;;;;;;;4.43;2.10;;;17.20;99.90;;;;;;5022480;28;20458;-72
2023/03/13 13:13:39;;;;;;;6.30;2.23;;;17.30;99.90;;;;;;5021349;28;20929;-72
2023/03/13 13:16:26;;;;;;;4.23;1.90;;;17.40;99.90;;;;;;5014086;28;20881;-73
2023/03/13 13:19:46;;;;;;;6.77;2.00;;;17.60;99.90;;;;;;5025142;28;20435;-72
2023/03/13 13:22:50;;;;;;;3.90;2.10;;;17.50;99.90;;;;;;5018580;28;21088;-72
2023/03/13 13:25:36;;;;;;;5.90;2.37;;;17.50;99.90;;;;;;5021538;28;20457;-72
2023/03/13 13:28:33;;;;;;;2.73;1.90;;;17.50;99.90;;;;;;5026893;28;20526;-72
2023/03/13 13:31:58;;;;;;;3.63;2.30;;;17.50;99.90;;;;;;5016359;28;20478;-72
2023/03/13 13:35:01;;;;;;;5.03;2.27;;;17.50;99.90;;;;;;5026624;28;20421;-71
2023/03/13 13:37:49;;;;;;;4.47;2.10;;;17.60;99.90;;;;;;5025252;28;20557;-72
2023/03/13 13:40:35;;;;;;;4.20;1.70;;;17.70;99.90;;;;;;5012410;28;21147;-72
2023/03/13 13:43:23;;;;;;;3.10;1.43;;;17.90;99.90;;;;;;5024732;28;20701;-71
2023/03/13 13:46:23;;;;;;;3.07;1.80;;;18.40;99.90;;;;;;5014576;28;20566;-72
2023/03/13 13:49:15;;;;;;;2.23;1.33;;;18.80;99.90;;;;;;5022250;28;20972;-72
2023/03/13 13:52:36;;;;;;;2.30;1.63;;;19.00;99.90;;;;;;5020698;28;20487;-72
2023/03/13 13:55:44;;;;;;;7.80;1.50;;;19.30;99.90;;;;;;5015760;28;20467;-72
2023/03/13 13:58:32;;;;;;;2.60;1.70;;;19.60;99.90;;;;;;5023270;28;20445;-72
2023/03/13 14:01:18;;;;;;;4.10;1.87;;;19.90;99.90;;;;;;5025504;28;20424;-72
2023/03/13 14:04:13;;;;;;;2.37;1.30;;;20.10;99.90;;;;;;5019797;28;20578;-72
2023/03/13 14:07:02;;;;;;;4.43;1.70;;;20.00;93.30;;;;;;5023648;28;20443;-72
2023/03/13 14:09:54;;;;;;;2.37;1.50;;;19.90;94.10;;;;;;5021117;28;20476;-72
2023/03/13 14:12:46;;;;;;;2.90;1.70;;;20.00;92.40;;;;;;5014183;28;20437;-72
2023/03/13 14:15:34;;;;;;;3.70;1.90;;;19.90;92.40;;;;;;5014562;28;20607;-72
2023/03/13 14:18:23;;;;;;;3.60;1.57;;;19.80;93.60;;;;;;5022155;28;20542;-72
2023/03/13 14:21:12;;;;;;;5.27;1.87;;;19.70;93.70;;;;;;5023145;28;20426;-72
2023/03/13 14:23:58;;;;;;;4.07;1.60;;;19.70;92.40;;;;;;5028088;28;20438;-72
2023/03/13 14:26:45;;;;;;;3.80;2.10;;;19.70;92.80;;;;;;5023461;28;20421;-71
2023/03/13 14:29:32;;;;;;;2.73;1.53;;;19.70;93.90;;;;;;5019192;28;20482;-73
2023/03/13 14:32:18;;;;;;;5.70;1.63;;;19.60;91.70;;;;;;5017125;28;20796;-72
2023/03/13 14:35:05;;;;;;;2.10;1.33;;;19.60;92.00;;;;;;5014819;28;20431;-72